ΕΜΥ, Εθνική Μετεωρολογική Υπηρεσία - Δελτία Καιρού, Προγνώσεις

ΑΕΡΟΝΑΥΤΙΛΙΑ

GREEK AIRPORTS CODES

LGKA 071400Z AUTO 11009KT 060V160 //// // ////// 14/M12 Q1026 RE//=

EUROPEAN AIRPORTS CODES

LFPO 071400Z AUTO 10008KT 070V130 CAVOK 22/09 Q1025=